createdAt,value
2019-03-26T00:00:23.282Z,97.88
2019-03-26T00:05:29.134Z,98.11
2019-03-26T00:10:34.744Z,98.05
2019-03-26T00:15:40.261Z,97.60
2019-03-26T00:20:45.765Z,95.46
2019-03-26T00:25:51.733Z,94.84
2019-03-26T00:30:57.222Z,93.00
2019-03-26T00:36:03.161Z,92.23
2019-03-26T00:41:08.704Z,92.34
2019-03-26T00:46:14.272Z,92.25
2019-03-26T00:51:19.868Z,92.11
2019-03-26T00:56:25.394Z,92.45
2019-03-26T01:01:31.124Z,92.43
2019-03-26T01:06:36.862Z,92.06
2019-03-26T01:11:42.353Z,91.89
2019-03-26T01:16:47.870Z,91.77
2019-03-26T01:21:54.402Z,91.88
2019-03-26T01:27:00.122Z,91.74
2019-03-26T01:32:05.865Z,91.91
2019-03-26T01:37:11.398Z,92.07
2019-03-26T01:42:16.929Z,92.11
2019-03-26T01:47:22.587Z,92.55
2019-03-26T01:52:28.382Z,92.80
2019-03-26T01:57:33.849Z,93.45
2019-03-26T02:02:39.464Z,94.12
2019-03-26T02:07:44.980Z,94.70
2019-03-26T02:12:50.714Z,94.77
2019-03-26T02:17:56.324Z,95.28
2019-03-26T02:23:01.889Z,95.40
2019-03-26T02:28:07.456Z,95.48
2019-03-26T02:33:13.045Z,95.78
2019-03-26T02:38:18.581Z,95.93
2019-03-26T02:43:24.296Z,95.63
2019-03-26T02:48:29.822Z,95.71
2019-03-26T02:53:36.605Z,96.06
2019-03-26T02:58:42.342Z,95.70
2019-03-26T03:03:47.869Z,95.58
2019-03-26T03:08:53.403Z,95.45
2019-03-26T03:14:00.135Z,95.64
2019-03-26T03:19:05.703Z,95.65
2019-03-26T03:24:14.166Z,95.96
2019-03-26T03:29:18.723Z,96.47
2019-03-26T03:34:24.785Z,96.66
2019-03-26T03:39:30.160Z,97.23
2019-03-26T03:44:35.724Z,97.70
2019-03-26T03:49:41.646Z,97.93
2019-03-26T03:54:47.718Z,98.36
2019-03-26T03:59:53.582Z,98.80
2019-03-26T04:04:59.033Z,99.13
2019-03-26T04:10:04.961Z,98.94
2019-03-26T04:15:10.409Z,99.26
2019-03-26T04:20:15.936Z,99.72
2019-03-26T04:25:21.382Z,99.81
2019-03-26T04:30:31.532Z,100.00
2019-03-26T04:35:37.076Z,99.76
2019-03-26T04:40:42.996Z,100.00
2019-03-26T04:45:48.589Z,100.00
2019-03-26T04:50:54.562Z,100.00
2019-03-26T04:56:00.112Z,100.00
2019-03-26T05:01:05.660Z,100.00
2019-03-26T05:06:11.190Z,100.00
2019-03-26T05:11:16.682Z,100.00
2019-03-26T05:16:22.219Z,100.00
2019-03-26T05:21:27.720Z,100.00
2019-03-26T05:26:33.267Z,100.00
2019-03-26T05:31:39.343Z,100.00
2019-03-26T05:36:51.180Z,100.00
2019-03-26T05:41:52.620Z,100.00
2019-03-26T05:47:01.453Z,99.94
2019-03-26T05:52:05.812Z,99.08
2019-03-26T05:57:11.436Z,98.19
2019-03-26T06:02:18.101Z,97.09
2019-03-26T06:07:23.914Z,95.79
2019-03-26T06:12:32.103Z,95.55
2019-03-26T06:17:37.867Z,94.67
2019-03-26T06:22:43.432Z,94.45
2019-03-26T06:27:49.046Z,93.98
2019-03-26T06:32:54.662Z,93.99
2019-03-26T06:38:00.177Z,94.03
2019-03-26T06:43:05.793Z,94.71
2019-03-26T06:48:11.536Z,94.79
2019-03-26T06:53:17.063Z,95.13
2019-03-26T06:58:22.701Z,95.70
2019-03-26T07:03:28.272Z,95.78
2019-03-26T07:08:34.999Z,95.91
2019-03-26T07:13:40.617Z,96.32
2019-03-26T07:18:46.177Z,96.00
2019-03-26T07:23:52.135Z,94.70
2019-03-26T07:28:58.244Z,93.17
2019-03-26T07:34:07.021Z,92.78
2019-03-26T07:39:11.070Z,92.25
2019-03-26T07:44:16.661Z,91.56
2019-03-26T07:49:24.227Z,90.97
2019-03-26T07:54:32.630Z,90.23
2019-03-26T07:59:37.534Z,89.32
2019-03-26T08:04:43.295Z,87.60
2019-03-26T08:09:50.612Z,84.75
2019-03-26T08:14:59.415Z,82.13
2019-03-26T08:20:05.374Z,80.76
2019-03-26T08:25:11.630Z,79.90
2019-03-26T08:30:17.361Z,78.36
2019-03-26T08:35:23.084Z,77.99
2019-03-26T08:40:29.030Z,77.32
2019-03-26T08:45:35.866Z,76.65
2019-03-26T08:50:41.564Z,76.83
2019-03-26T08:55:47.070Z,76.87
2019-03-26T09:00:52.834Z,76.92
2019-03-26T09:05:58.632Z,76.57
2019-03-26T09:11:04.516Z,70.57
2019-03-26T09:16:10.031Z,69.47
2019-03-26T09:21:15.796Z,68.37
2019-03-26T09:26:21.496Z,66.31
2019-03-26T09:31:27.568Z,65.83
2019-03-26T09:36:34.319Z,66.52
2019-03-26T09:41:40.060Z,66.65
2019-03-26T09:46:45.685Z,66.41
2019-03-26T09:51:51.276Z,66.13
2019-03-26T09:56:57.716Z,63.70
2019-03-26T10:02:03.251Z,61.72
2019-03-26T10:07:20.759Z,61.11
2019-03-26T10:12:18.036Z,60.65
2019-03-26T10:17:25.756Z,61.70
2019-03-26T10:22:31.402Z,61.49
2019-03-26T10:27:36.961Z,62.34
2019-03-26T10:32:43.586Z,63.21
2019-03-26T10:37:49.418Z,63.68
2019-03-26T10:42:59.084Z,64.40
2019-03-26T10:48:04.978Z,60.53
2019-03-26T10:53:10.956Z,58.74
2019-03-26T10:58:17.715Z,59.72
2019-03-26T11:03:23.363Z,61.19
2019-03-26T11:08:29.043Z,63.78
2019-03-26T11:13:34.984Z,63.40
2019-03-26T11:18:40.690Z,64.50
2019-03-26T11:23:46.340Z,63.67
2019-03-26T11:28:51.938Z,64.00
2019-03-26T11:33:57.770Z,64.11
2019-03-26T11:39:05.094Z,63.33
2019-03-26T11:44:11.188Z,61.53
2019-03-26T11:49:17.820Z,61.01
2019-03-26T11:54:23.896Z,60.69
2019-03-26T11:59:30.048Z,62.06
2019-03-26T12:04:36.176Z,61.36
2019-03-26T12:09:46.539Z,58.90
2019-03-26T12:15:04.736Z,57.17
2019-03-26T12:20:10.631Z,58.64
2019-03-26T12:25:16.336Z,60.07
2019-03-26T12:30:38.301Z,60.57
2019-03-26T12:35:44.072Z,62.13
2019-03-26T12:40:50.448Z,60.57
2019-03-26T12:45:56.352Z,60.99
2019-03-26T12:51:03.030Z,61.28
2019-03-26T12:56:08.850Z,60.97
2019-03-26T13:01:14.572Z,60.37
2019-03-26T13:06:20.148Z,60.89
2019-03-26T13:11:26.151Z,61.05
2019-03-26T13:16:31.784Z,60.85
2019-03-26T13:21:37.726Z,60.84
2019-03-26T13:26:44.546Z,61.38
2019-03-26T13:31:50.096Z,61.03
2019-03-26T13:36:55.871Z,61.07
2019-03-26T13:42:01.744Z,60.65
2019-03-26T13:47:12.391Z,60.39
2019-03-26T13:52:17.953Z,59.55
2019-03-26T13:57:23.742Z,58.54
2019-03-26T14:02:29.322Z,58.22
2019-03-26T14:07:35.010Z,57.01
2019-03-26T14:12:40.644Z,54.02
2019-03-26T14:17:46.286Z,50.60
2019-03-26T14:22:51.840Z,51.25
2019-03-26T14:27:57.496Z,50.58
2019-03-26T14:33:03.058Z,50.81
2019-03-26T14:38:08.852Z,53.04
2019-03-26T14:43:14.417Z,55.43
2019-03-26T14:48:20.139Z,57.24
2019-03-26T14:53:25.736Z,57.96
2019-03-26T14:58:33.448Z,58.37
2019-03-26T15:03:39.217Z,59.29
2019-03-26T15:08:44.937Z,60.54
2019-03-26T15:13:50.841Z,61.48
2019-03-26T15:18:56.414Z,62.96
2019-03-26T15:24:01.921Z,64.10
2019-03-26T15:29:08.658Z,65.52
2019-03-26T15:34:19.280Z,66.15
2019-03-26T15:39:25.552Z,66.76
2019-03-26T15:44:31.316Z,67.94
2019-03-26T15:49:37.000Z,69.03
2019-03-26T15:54:42.894Z,69.46
2019-03-26T15:59:48.643Z,69.99
2019-03-26T16:04:54.600Z,70.81
2019-03-26T16:10:00.468Z,72.50
2019-03-26T16:15:06.986Z,73.64
2019-03-26T16:20:12.738Z,74.38
2019-03-26T16:25:18.600Z,74.29
2019-03-26T16:30:24.292Z,75.09
2019-03-26T16:35:29.942Z,75.38
2019-03-26T16:40:35.597Z,75.59
2019-03-26T16:45:41.136Z,75.82
2019-03-26T16:50:46.787Z,75.78
2019-03-26T16:55:52.435Z,76.77
2019-03-26T17:00:58.230Z,80.17
2019-03-26T17:06:04.251Z,83.11
2019-03-26T17:11:09.946Z,85.85
2019-03-26T17:16:15.617Z,88.69
2019-03-26T17:21:21.233Z,90.26
2019-03-26T17:26:26.938Z,91.51
2019-03-26T17:31:32.748Z,90.91
2019-03-26T17:36:38.674Z,91.25
2019-03-26T17:41:44.412Z,90.60
2019-03-26T17:46:50.116Z,89.76
2019-03-26T17:51:55.919Z,88.86
2019-03-26T17:57:02.292Z,88.72
2019-03-26T18:02:07.935Z,88.58
2019-03-26T18:07:13.568Z,88.13
2019-03-26T18:12:30.126Z,88.14
2019-03-26T18:17:26.820Z,88.04
2019-03-26T18:22:32.936Z,86.82
2019-03-26T18:27:38.392Z,86.19
2019-03-26T18:32:44.044Z,86.23
2019-03-26T18:37:49.926Z,86.20
2019-03-26T18:42:55.572Z,86.19
2019-03-26T18:48:02.548Z,86.36
2019-03-26T18:53:09.319Z,87.42
2019-03-26T18:58:15.038Z,88.74
2019-03-26T19:03:21.711Z,88.93
2019-03-26T19:08:27.257Z,89.22
2019-03-26T19:13:33.127Z,89.82
2019-03-26T19:18:38.714Z,91.09
2019-03-26T19:23:45.506Z,91.59
2019-03-26T19:28:56.562Z,91.97
2019-03-26T19:34:02.268Z,91.91
2019-03-26T19:39:08.791Z,91.50
2019-03-26T19:44:14.922Z,91.38
2019-03-26T19:49:20.518Z,91.04
2019-03-26T19:54:26.212Z,91.31
2019-03-26T19:59:31.964Z,91.82
2019-03-26T20:04:37.541Z,91.75
2019-03-26T20:09:43.120Z,92.03
2019-03-26T20:14:52.074Z,91.93
2019-03-26T20:19:57.967Z,91.05
2019-03-26T20:25:03.680Z,90.59
2019-03-26T20:30:09.893Z,90.93
2019-03-26T20:35:16.103Z,92.82
2019-03-26T20:40:21.970Z,89.89
2019-03-26T20:45:27.783Z,89.63
2019-03-26T20:50:33.251Z,90.00
2019-03-26T20:55:39.002Z,90.06
2019-03-26T21:00:44.628Z,90.00
2019-03-26T21:05:50.584Z,90.10
2019-03-26T21:10:56.119Z,90.28
2019-03-26T21:16:01.789Z,90.59
2019-03-26T21:21:07.349Z,90.95
2019-03-26T21:26:13.290Z,91.36
2019-03-26T21:31:19.450Z,91.34
2019-03-26T21:36:26.911Z,91.74
2019-03-26T21:41:32.624Z,91.98
2019-03-26T21:46:38.505Z,91.84
2019-03-26T21:51:44.547Z,91.67
2019-03-26T21:56:50.178Z,91.83
2019-03-26T22:01:55.885Z,91.97
2019-03-26T22:07:01.635Z,92.40
2019-03-26T22:12:07.402Z,92.71
2019-03-26T22:17:13.126Z,93.27
2019-03-26T22:22:18.655Z,93.71
2019-03-26T22:27:24.523Z,94.32
2019-03-26T22:32:30.027Z,95.14
2019-03-26T22:37:35.681Z,96.16
2019-03-26T22:42:41.769Z,96.76
2019-03-26T22:47:47.289Z,97.23
2019-03-26T22:52:52.883Z,97.23
2019-03-26T22:57:58.632Z,97.17
2019-03-26T23:03:04.782Z,96.65
2019-03-26T23:08:10.352Z,96.62
2019-03-26T23:13:16.151Z,95.92
2019-03-26T23:18:21.899Z,96.21
2019-03-26T23:23:27.871Z,97.21
2019-03-26T23:28:34.123Z,98.43
2019-03-26T23:33:39.735Z,98.96
2019-03-26T23:38:45.419Z,99.65
2019-03-26T23:43:50.993Z,100.00
2019-03-26T23:48:56.624Z,100.00
2019-03-26T23:54:03.348Z,100.00
2019-03-26T23:59:08.839Z,100.00
